Time;durP1;ratioP1;P1;durP2;ratioP2;P2;SDS_P1;SDS_P2;PMS_P1;PMS_P2;Temp;Humidity;BMP_temperature;BMP_pressure;BME280_temperature;BME280_humidity;BME280_pressure;Samples;Min_cycle;Max_cycle;Signal;HPM_P1;HPM_P2
2022/08/19 00:00:27;;;;;;;33.53;29.63;;;;;;;15.38;100.00;101234.72;5093143;28;20020;-46
2022/08/19 00:02:53;;;;;;;35.53;31.83;;;;;;;15.34;100.00;101235.53;5093081;28;20028;-46
2022/08/19 00:05:20;;;;;;;35.70;31.70;;;;;;;15.27;100.00;101233.66;5092929;28;20101;-45
2022/08/19 00:07:48;;;;;;;36.70;32.95;;;;;;;15.31;100.00;101230.28;5093168;28;20823;-46
2022/08/19 00:10:14;;;;;;;;;;;;;;;15.40;100.00;101235.63;5093095;28;20067;-47
2022/08/19 00:12:40;;;;;;;41.25;35.63;;;;;;;15.45;100.00;101234.00;5092658;28;19912;-47
2022/08/19 00:15:11;;;;;;;43.22;36.58;;;;;;;15.43;100.00;101233.06;5092929;28;20073;-46
2022/08/19 00:17:36;;;;;;;39.97;35.65;;;;;;;15.49;100.00;101227.09;5092675;28;20024;-46
2022/08/19 00:20:03;;;;;;;39.97;34.38;;;;;;;15.46;100.00;101230.50;5092952;28;20024;-46
2022/08/19 00:22:28;;;;;;;41.33;34.88;;;;;;;15.50;100.00;101230.59;5093058;28;20028;-44
2022/08/19 00:24:54;;;;;;;41.63;35.60;;;;;;;15.53;100.00;101225.41;5092503;28;20023;-44
2022/08/19 00:27:19;;;;;;;35.50;31.65;;;;;;;15.38;100.00;101224.34;5092761;28;20042;-43
2022/08/19 00:29:44;;;;;;;32.80;29.35;;;;;;;15.28;100.00;101227.63;5092779;28;20016;-44
2022/08/19 00:32:10;;;;;;;32.90;29.42;;;;;;;15.21;100.00;101229.25;5092487;28;20052;-43
2022/08/19 00:34:35;;;;;;;32.08;28.63;;;;;;;15.09;100.00;101234.25;5092686;28;20501;-45
2022/08/19 00:37:01;;;;;;;30.75;26.23;;;;;;;14.97;100.00;101233.16;5092441;28;20020;-45
2022/08/19 00:39:26;;;;;;;31.33;27.88;;;;;;;14.94;100.00;101240.91;5093129;28;20463;-43
2022/08/19 00:41:51;;;;;;;32.58;27.85;;;;;;;14.91;100.00;101245.16;5092790;28;20024;-43
2022/08/19 00:44:25;;;;;;;30.15;26.90;;;;;;;14.79;100.00;101241.50;5092287;28;20036;-43
2022/08/19 00:46:51;;;;;;;33.60;26.95;;;;;;;14.70;100.00;101240.47;5092732;28;20149;-45
2022/08/19 00:49:27;;;;;;;30.10;26.67;;;;;;;14.61;100.00;101241.13;5092489;28;20037;-43
2022/08/19 00:52:00;;;;;;;31.00;26.92;;;;;;;14.55;100.00;101235.81;5092381;28;20071;-45
2022/08/19 00:54:26;;;;;;;32.55;27.33;;;;;;;14.59;100.00;101232.44;5092455;28;20025;-43
2022/08/19 00:56:52;;;;;;;31.00;27.05;;;;;;;14.51;100.00;101232.28;5092729;28;20486;-47
2022/08/19 00:59:19;;;;;;;33.47;27.55;;;;;;;14.54;100.00;101234.94;5092359;28;20028;-43
2022/08/19 01:01:45;;;;;;;33.15;27.73;;;;;;;14.56;100.00;101232.38;5092336;28;20047;-43
2022/08/19 01:04:11;;;;;;;30.65;27.35;;;;;;;14.61;100.00;101235.94;5092769;28;20020;-44
2022/08/19 01:06:39;;;;;;;30.83;27.38;;;;;;;14.60;100.00;101234.19;5092079;28;20121;-42
2022/08/19 01:09:04;;;;;;;;;;;;;;;14.68;100.00;101227.47;5092678;28;20024;-44
2022/08/19 01:11:35;;;;;;;30.67;27.25;;;;;;;14.62;100.00;101245.47;5092416;28;19918;-43
2022/08/19 01:14:00;;;;;;;32.35;28.65;;;;;;;14.61;100.00;101233.34;5092116;28;20036;-44
2022/08/19 01:16:28;;;;;;;39.13;31.95;;;;;;;14.69;100.00;101239.56;5093336;28;20368;-44
2022/08/19 01:18:54;;;;;;;55.28;39.78;;;;;;;14.79;100.00;101246.69;5096544;28;20016;-44
2022/08/19 01:21:37;;;;;;;57.67;41.78;;;;;;;14.86;100.00;101241.63;5095911;28;20038;-44
2022/08/19 01:24:03;;;;;;;41.40;34.28;;;;;;;14.78;100.00;101233.69;5095876;28;20491;-43
2022/08/19 01:26:29;;;;;;;34.13;30.05;;;;;;;14.78;100.00;101229.41;5095739;28;20409;-44
2022/08/19 01:28:57;;;;;;;33.85;29.23;;;;;;;14.63;100.00;101229.06;5096230;28;20024;-44
2022/08/19 01:31:25;;;;;;;35.58;30.25;;;;;;;14.51;100.00;101234.00;5096220;28;20024;-43
2022/08/19 01:33:52;;;;;;;37.05;30.10;;;;;;;14.40;100.00;101232.09;5095481;28;20031;-46
2022/08/19 01:36:31;;;;;;;42.92;31.08;;;;;;;14.36;100.00;101235.47;5095672;28;20036;-43
2022/08/19 01:38:58;;;;;;;38.72;29.45;;;;;;;14.34;100.00;101234.53;5096270;28;20020;-42
2022/08/19 01:41:24;;;;;;;41.03;33.58;;;;;;;14.33;100.00;101235.38;5095510;28;20383;-43
2022/08/19 01:43:51;;;;;;;40.15;31.63;;;;;;;14.28;100.00;101234.41;5095735;28;20081;-47
2022/08/19 01:46:17;;;;;;;55.30;33.55;;;;;;;14.21;100.00;101232.56;5096054;28;20055;-44
2022/08/19 01:48:45;;;;;;;40.63;31.30;;;;;;;14.13;100.00;101232.41;5094920;28;20094;-43
2022/08/19 01:51:11;;;;;;;35.47;28.63;;;;;;;14.06;100.00;101227.91;5095720;28;20025;-44
2022/08/19 01:53:37;;;;;;;39.60;29.42;;;;;;;13.98;100.00;101225.16;5095724;28;20082;-43
2022/08/19 01:56:04;;;;;;;36.75;29.52;;;;;;;13.93;100.00;101226.78;5095284;28;20048;-43
2022/08/19 01:58:38;;;;;;;38.85;29.55;;;;;;;13.97;100.00;101229.47;5095279;28;20065;-43
2022/08/19 02:01:05;;;;;;;39.03;33.92;;;;;;;14.03;100.00;101233.91;5095608;28;20106;-43
2022/08/19 02:03:30;;;;;;;36.65;31.05;;;;;;;14.02;100.00;101237.38;5094807;28;20032;-45
2022/08/19 02:06:02;;;;;;;35.97;30.30;;;;;;;13.98;100.00;101240.69;5095517;28;20016;-44
2022/08/19 02:08:28;;;;;;;32.60;29.20;;;;;;;14.01;100.00;101235.59;5094947;28;20028;-43
2022/08/19 02:10:53;;;;;;;29.38;26.23;;;;;;;13.97;100.00;101242.44;5095544;28;20027;-42
2022/08/19 02:13:19;;;;;;;35.03;29.13;;;;;;;14.01;100.00;101240.78;5095116;28;20024;-45
2022/08/19 02:15:45;;;;;;;37.00;30.08;;;;;;;14.02;100.00;101239.94;5094684;28;20039;-44
2022/08/19 02:18:10;;;;;;;33.47;27.98;;;;;;;13.99;100.00;101251.13;5094943;28;20051;-44
2022/08/19 02:20:38;;;;;;;31.02;26.35;;;;;;;13.96;100.00;101260.53;5095324;28;20028;-45
2022/08/19 02:23:04;;;;;;;42.95;31.90;;;;;;;14.08;100.00;101252.16;5094551;28;20411;-43
2022/08/19 02:25:29;;;;;;;36.17;29.15;;;;;;;14.06;100.00;101246.94;5094748;28;20368;-45
2022/08/19 02:27:54;;;;;;;32.63;28.60;;;;;;;14.05;100.00;101247.78;5095218;28;20024;-45
2022/08/19 02:30:20;;;;;;;34.15;29.05;;;;;;;14.01;100.00;101238.19;5094402;28;20063;-44
2022/08/19 02:32:46;;;;;;;50.47;38.75;;;;;;;14.13;100.00;101248.81;5094891;28;20692;-43
2022/08/19 02:35:13;;;;;;;50.05;37.88;;;;;;;14.19;100.00;101260.16;5095045;28;20463;-44
2022/08/19 02:40:24;;;;;;;50.50;36.80;;;;;;;14.20;100.00;101257.59;5094921;28;20039;-43
2022/08/19 02:42:49;;;;;;;41.13;30.98;;;;;;;14.09;100.00;101259.97;5094648;28;20032;-44
2022/08/19 02:45:14;;;;;;;47.42;35.38;;;;;;;14.20;100.00;101254.13;5094698;28;20028;-43
2022/08/19 02:47:40;;;;;;;41.35;32.53;;;;;;;14.13;100.00;101260.91;5094356;28;20047;-44
2022/08/19 02:50:06;;;;;;;52.72;39.63;;;;;;;14.23;100.00;101267.13;5094574;28;20466;-44
2022/08/19 02:52:33;;;;;;;49.35;38.30;;;;;;;14.22;100.00;101268.88;5093898;28;20494;-44
2022/08/19 02:54:58;;;;;;;58.90;41.95;;;;;;;14.34;100.00;101273.44;5094340;28;20035;-42
2022/08/19 02:57:24;;;;;;;61.35;42.30;;;;;;;14.37;100.00;101278.72;5094448;28;20020;-44
2022/08/19 02:59:49;;;;;;;60.75;43.60;;;;;;;14.44;100.00;101270.19;5093858;28;20088;-43
2022/08/19 03:02:15;;;;;;;50.08;38.92;;;;;;;14.39;100.00;101270.94;5094115;28;20107;-43
2022/08/19 03:04:41;;;;;;;61.53;43.35;;;;;;;14.43;100.00;101270.16;5093901;28;20482;-45
2022/08/19 03:07:08;;;;;;;57.80;43.20;;;;;;;14.44;100.00;101267.59;5094399;28;20020;-45
2022/08/19 03:09:35;;;;;;;66.30;47.33;;;;;;;14.54;100.00;101266.06;5094144;28;20020;-43
2022/08/19 03:12:03;;;;;;;56.90;42.38;;;;;;;14.42;100.00;101258.03;5093516;28;20092;-44
2022/08/19 03:14:30;;;;;;;65.45;45.38;;;;;;;14.59;100.00;101261.84;5093991;28;20059;-43
2022/08/19 03:16:55;;;;;;;81.30;52.50;;;;;;;14.69;100.00;101259.47;5094179;28;20387;-44
2022/08/19 03:19:21;;;;;;;70.18;49.67;;;;;;;14.73;100.00;101261.28;5093593;28;20106;-45
2022/08/19 03:21:46;;;;;;;67.65;48.08;;;;;;;14.71;100.00;101266.44;5093787;28;20024;-45
2022/08/19 03:24:13;;;;;;;74.93;51.00;;;;;;;14.83;100.00;101265.78;5093906;28;20027;-44
2022/08/19 03:26:41;;;;;;;58.88;44.20;;;;;;;14.66;100.00;101270.66;5093342;28;20028;-43
2022/08/19 03:29:10;;;;;;;70.82;48.72;;;;;;;14.80;100.00;101269.19;5093848;28;20024;-43
2022/08/19 03:31:35;;;;;;;69.72;45.72;;;;;;;14.78;100.00;101257.94;5093939;28;20024;-44
2022/08/19 03:34:01;;;;;;;67.18;48.38;;;;;;;14.81;100.00;101260.56;5093121;28;20085;-43
2022/08/19 03:36:27;;;;;;;72.65;51.50;;;;;;;14.87;100.00;101265.00;5093634;28;20055;-42
2022/08/19 03:38:55;;;;;;;65.22;46.55;;;;;;;14.73;100.00;101262.16;5093333;28;20479;-45
2022/08/19 03:41:24;;;;;;;70.72;48.42;;;;;;;14.85;100.00;101260.63;5093072;28;20398;-44
2022/08/19 03:43:51;;;;;;;61.70;45.75;;;;;;;14.78;100.00;101260.53;5093180;28;20035;-44
2022/08/19 03:46:21;;;;;;;60.80;44.13;;;;;;;14.71;100.00;101260.38;5093718;28;20077;-42
2022/08/19 03:48:48;;;;;;;64.78;46.33;;;;;;;14.68;100.00;101250.81;5092787;28;20343;-43
2022/08/19 03:51:19;;;;;;;67.57;47.13;;;;;;;14.68;100.00;101253.41;5093262;28;20028;-42
2022/08/19 03:53:46;;;;;;;57.92;43.88;;;;;;;14.59;100.00;101248.00;5093313;28;20032;-43
2022/08/19 03:56:12;;;;;;;53.13;41.88;;;;;;;14.49;100.00;101246.97;5093089;28;20069;-43
2022/08/19 03:58:38;;;;;;;60.47;46.15;;;;;;;14.49;100.00;101250.41;5093265;28;20032;-43
2022/08/19 04:01:08;;;;;;;65.93;44.97;;;;;;;14.41;100.00;101248.50;5092896;28;20040;-43
2022/08/19 04:03:35;;;;;;;63.28;45.97;;;;;;;14.46;100.00;101247.78;5092900;28;20501;-42
2022/08/19 04:06:16;;;;;;;57.95;43.63;;;;;;;14.33;100.00;101257.03;5093225;28;20024;-43
2022/08/19 04:08:44;;;;;;;70.63;47.38;;;;;;;14.40;100.00;101258.00;5092823;28;20031;-45
2022/08/19 04:11:11;;;;;;;58.75;43.60;;;;;;;14.32;100.00;101264.78;5092953;28;20122;-43
2022/08/19 04:13:38;;;;;;;57.42;41.25;;;;;;;14.24;100.00;101258.53;5093035;28;20028;-43
2022/08/19 04:16:04;;;;;;;55.30;39.72;;;;;;;14.16;100.00;101253.19;5092648;28;20075;-45
2022/08/19 04:18:30;;;;;;;56.25;41.35;;;;;;;14.15;100.00;101247.13;5092734;28;20020;-45
2022/08/19 04:20:56;;;;;;;65.38;45.33;;;;;;;14.13;100.00;101259.19;5093064;28;20035;-44
2022/08/19 04:23:22;;;;;;;54.50;41.58;;;;;;;14.08;100.00;101265.13;5092343;28;20476;-42
2022/08/19 04:25:47;;;;;;;52.00;39.25;;;;;;;14.01;100.00;101264.09;5092608;28;20110;-46
2022/08/19 04:28:13;;;;;;;51.15;39.22;;;;;;;13.93;100.00;101260.44;5093080;28;20051;-44
2022/08/19 04:30:48;;;;;;;54.35;39.25;;;;;;;13.81;100.00;101256.78;5092376;28;20023;-43
2022/08/19 04:33:15;;;;;;;52.45;39.42;;;;;;;13.78;100.00;101253.22;5092490;28;20028;-42
2022/08/19 04:35:45;;;;;;;46.28;37.22;;;;;;;13.65;100.00;101259.84;5092707;28;20032;-42
2022/08/19 04:38:11;;;;;;;54.80;41.20;;;;;;;13.73;100.00;101247.06;5092246;28;20531;-45
2022/08/19 04:43:29;;;;;;;64.65;42.38;;;;;;;13.73;100.00;101245.34;5092588;28;20089;-44
2022/08/19 04:45:55;;;;;;;47.83;37.58;;;;;;;13.67;100.00;101247.78;5092593;28;20383;-43
2022/08/19 04:48:25;;;;;;;54.63;40.58;;;;;;;13.67;100.00;101252.97;5092633;28;20127;-45
2022/08/19 04:50:57;;;;;;;74.78;51.42;;;;;;;13.76;100.00;101254.91;5092527;28;20024;-42
2022/08/19 04:53:28;;;;;;;51.70;37.50;;;;;;;13.64;100.00;101255.50;5096648;28;20016;-42
2022/08/19 04:55:57;;;;;;;78.63;52.33;;;;;;;13.74;100.00;101254.88;5097027;28;20035;-46
2022/08/19 04:58:24;;;;;;;61.15;44.92;;;;;;;13.62;100.00;101260.66;5096115;28;20455;-43
2022/08/19 05:00:50;;;;;;;76.85;49.58;;;;;;;13.76;100.00;101263.56;5096657;28;20024;-43
2022/08/19 05:03:16;;;;;;;67.32;47.95;;;;;;;13.78;100.00;101272.22;5096864;28;20035;-43
2022/08/19 05:05:48;;;;;;;76.78;51.83;;;;;;;13.79;100.00;101273.97;5096205;28;20016;-43
2022/08/19 05:08:18;;;;;;;75.55;49.63;;;;;;;13.79;100.00;101266.22;5096337;28;20031;-43
2022/08/19 05:10:44;;;;;;;95.20;58.13;;;;;;;13.87;100.00;101279.34;5096479;28;20024;-47
2022/08/19 05:13:10;;;;;;;108.22;65.03;;;;;;;13.90;100.00;101281.13;5096011;28;20103;-45
2022/08/19 05:15:36;;;;;;;89.07;57.47;;;;;;;13.92;100.00;101282.06;5096497;28;20024;-43
2022/08/19 05:23:29;;;;;;;195.02;100.35;;;;;;;14.47;100.00;101290.13;5096547;28;20097;-45
2022/08/19 05:25:54;;;;;;;187.63;96.85;;;;;;;14.54;100.00;101293.72;5096043;28;20017;-43
2022/08/19 05:28:20;;;;;;;191.38;99.28;;;;;;;14.63;100.00;101301.72;5095912;28;20101;-44
2022/08/19 05:30:45;;;;;;;203.73;103.97;;;;;;;14.74;100.00;101308.00;5096251;28;20136;-44
2022/08/19 05:33:11;;;;;;;198.43;102.55;;;;;;;14.84;100.00;101305.59;5095588;28;20028;-43
2022/08/19 05:35:38;;;;;;;182.60;99.80;;;;;;;14.88;100.00;101312.59;5095730;28;20031;-45
2022/08/19 05:38:05;;;;;;;179.35;101.47;;;;;;;14.95;100.00;101317.03;5096013;28;20036;-46
2022/08/19 05:40:30;;;;;;;177.80;100.32;;;;;;;15.01;100.00;101314.56;5095482;28;20099;-43
2022/08/19 05:42:55;;;;;;;176.65;96.63;;;;;;;15.03;100.00;101318.09;5095967;28;20514;-44
2022/08/19 05:45:21;;;;;;;171.88;100.00;;;;;;;15.10;100.00;101319.06;5096006;28;20016;-44
2022/08/19 05:47:47;;;;;;;163.95;93.18;;;;;;;15.12;100.00;101312.19;5094821;28;20040;-43
2022/08/19 05:50:13;;;;;;;162.07;93.50;;;;;;;15.15;100.00;101313.09;5094401;28;20467;-43
2022/08/19 05:52:38;;;;;;;154.52;89.90;;;;;;;15.21;100.00;101311.47;5094414;28;20039;-43
2022/08/19 05:55:04;;;;;;;154.90;89.00;;;;;;;15.23;100.00;101315.84;5094129;28;20071;-43
2022/08/19 05:57:30;;;;;;;163.77;94.47;;;;;;;15.28;100.00;101314.19;5094337;28;20027;-44
2022/08/19 05:59:56;;;;;;;161.10;90.75;;;;;;;15.34;100.00;101308.25;5094742;28;20016;-44
2022/08/19 06:02:22;;;;;;;155.90;89.57;;;;;;;15.40;100.00;101305.78;5093414;28;20463;-43
2022/08/19 06:04:47;;;;;;;153.50;88.90;;;;;;;15.43;100.00;101303.22;5094067;28;20101;-43
2022/08/19 06:07:12;;;;;;;146.43;86.53;;;;;;;15.46;100.00;101294.59;5094183;28;20028;-44
2022/08/19 06:09:38;;;;;;;145.15;84.63;;;;;;;15.48;100.00;101304.16;5093551;28;20024;-45
2022/08/19 06:12:04;;;;;;;139.27;83.63;;;;;;;15.52;100.00;101296.41;5094318;28;20027;-45
2022/08/19 06:14:33;;;;;;;141.35;82.72;;;;;;;15.54;100.00;101292.13;5093978;28;20111;-43
2022/08/19 06:17:01;;;;;;;152.95;85.90;;;;;;;15.59;100.00;101285.28;5094060;28;20102;-45
2022/08/19 06:19:29;;;;;;;139.30;81.35;;;;;;;15.61;100.00;101286.19;5094011;28;20535;-45
2022/08/19 06:21:57;;;;;;;139.93;83.47;;;;;;;15.68;100.00;101288.00;5093651;28;20021;-47
2022/08/19 06:24:25;;;;;;;136.88;80.18;;;;;;;15.71;100.00;101293.28;5093901;28;20107;-43
2022/08/19 06:26:52;;;;;;;144.02;85.00;;;;;;;15.76;100.00;101294.22;5094059;28;20109;-47
2022/08/19 06:29:19;;;;;;;138.38;81.97;;;;;;;15.85;100.00;101290.03;5093581;28;20020;-47
2022/08/19 06:31:49;;;;;;;136.43;79.68;;;;;;;15.87;100.00;101296.09;5093581;28;20439;-44
2022/08/19 06:34:14;;;;;;;125.18;73.60;;;;;;;15.92;100.00;101297.06;5093722;28;20099;-45
2022/08/19 06:36:46;;;;;;;132.32;78.13;;;;;;;16.02;100.00;101298.94;5093418;28;20486;-47
2022/08/19 06:39:16;;;;;;;120.15;74.13;;;;;;;16.04;100.00;101291.19;5093693;28;20027;-45
2022/08/19 06:41:47;;;;;;;124.68;72.80;;;;;;;16.12;100.00;101292.16;5093783;28;20078;-45
2022/08/19 06:44:14;;;;;;;119.55;73.60;;;;;;;16.17;100.00;101295.69;5093266;28;20025;-46
2022/08/19 06:46:40;;;;;;;126.90;77.03;;;;;;;16.26;100.00;101298.41;5093371;28;20020;-46
2022/08/19 06:49:08;;;;;;;114.40;70.28;;;;;;;16.33;100.00;101298.50;5057856;28;1030293;-46
2022/08/19 06:51:34;;;;;;;112.57;68.32;;;;;;;16.38;100.00;101295.09;5094158;28;20107;-46
2022/08/19 06:54:00;;;;;;;113.97;67.18;;;;;;;16.41;100.00;101302.06;5093874;28;20111;-48
2022/08/19 06:56:33;;;;;;;105.32;64.90;;;;;;;16.50;100.00;101298.72;5094672;28;20093;-44
2022/08/19 06:59:06;;;;;;;111.28;66.68;;;;;;;16.52;100.00;101300.47;5093771;28;20463;-43
2022/08/19 07:01:37;;;;;;;111.57;67.78;;;;;;;16.60;100.00;101298.84;5094438;28;20099;-50
2022/08/19 07:04:07;;;;;;;104.20;63.67;;;;;;;16.70;100.00;101304.16;5093950;28;20020;-50
2022/08/19 07:06:32;;;;;;;101.97;59.30;;;;;;;16.83;100.00;101294.75;5094190;28;20050;-44
2022/08/19 07:08:58;;;;;;;103.53;64.60;;;;;;;16.88;100.00;101304.34;5094312;28;20013;-45
2022/08/19 07:11:24;;;;;;;103.47;62.35;;;;;;;17.03;100.00;101298.47;5093734;28;20411;-47
2022/08/19 07:13:50;;;;;;;91.78;58.67;;;;;;;17.13;100.00;101301.16;5093047;28;20464;-49
2022/08/19 07:16:21;;;;;;;93.80;59.40;;;;;;;17.17;100.00;101310.75;5094215;28;20053;-47
2022/08/19 07:18:48;;;;;;;115.50;69.40;;;;;;;17.36;100.00;101312.66;5093640;28;20024;-45
2022/08/19 07:21:17;;;;;;;104.93;65.13;;;;;;;17.39;100.00;101322.25;5093881;28;20063;-48
2022/08/19 07:23:43;;;;;;;124.13;68.40;;;;;;;17.57;100.00;101321.53;5093837;28;20383;-48
2022/08/19 07:26:12;;;;;;;102.35;62.30;;;;;;;17.55;100.00;101323.28;5093325;28;20027;-47
2022/08/19 07:28:38;;;;;;;116.10;67.20;;;;;;;17.73;100.00;101328.63;5093530;28;20165;-45
2022/08/19 07:31:05;;;;;;;109.68;66.25;;;;;;;17.77;100.00;101333.00;5094001;28;20046;-49
2022/08/19 07:33:32;;;;;;;96.20;60.15;;;;;;;17.85;100.00;101333.03;5093172;28;20036;-50
2022/08/19 07:35:58;;;;;;;120.03;72.55;;;;;;;18.14;100.00;101328.91;5093772;28;20035;-49
2022/08/19 07:38:23;;;;;;;99.75;59.15;;;;;;;18.08;100.00;101328.03;5093648;28;20024;-48
2022/08/19 07:40:48;;;;;;;92.28;57.80;;;;;;;18.06;100.00;101326.25;5092702;28;20035;-49
2022/08/19 07:43:15;;;;;;;92.45;53.88;;;;;;;18.20;100.00;101334.19;5093803;28;20021;-49
2022/08/19 07:45:40;;;;;;;85.53;53.92;;;;;;;18.24;100.00;101336.81;5093396;28;20368;-50
2022/08/19 07:48:05;;;;;;;89.13;54.63;;;;;;;18.25;100.00;101332.47;5092640;28;20055;-46
2022/08/19 07:50:31;;;;;;;80.15;51.72;;;;;;;18.25;100.00;101337.69;5093510;28;20446;-49
2022/08/19 07:52:56;;;;;;;82.72;52.22;;;;;;;18.27;100.00;101346.41;5093580;28;20086;-49
2022/08/19 07:55:25;;;;;;;80.05;52.80;;;;;;;18.41;100.00;101355.19;5092623;28;20055;-50
2022/08/19 07:57:51;;;;;;;74.30;49.92;;;;;;;18.48;99.45;101353.47;5093243;28;20365;-49
2022/08/19 08:00:17;;;;;;;76.85;51.92;;;;;;;18.49;99.01;101349.09;5092960;28;20069;-48
2022/08/19 08:02:42;;;;;;;79.70;51.67;;;;;;;18.58;98.44;101354.41;5093123;28;20027;-49
2022/08/19 08:10:37;;;;;;;77.72;52.72;;;;;;;18.90;96.01;101351.03;5093029;28;20031;-47
2022/08/19 08:13:05;;;;;;;73.82;51.08;;;;;;;18.83;95.56;101357.97;5093301;28;20020;-46
2022/08/19 08:15:30;;;;;;;69.78;49.38;;;;;;;18.77;95.53;101357.94;5092448;28;20141;-50
2022/08/19 08:17:57;;;;;;;69.95;49.55;;;;;;;18.97;95.78;101359.78;5093058;28;20387;-46
2022/08/19 08:20:23;;;;;;;72.75;50.70;;;;;;;19.07;94.58;101359.81;5092861;28;20367;-48
2022/08/19 08:25:33;;;;;;;69.45;52.25;;;;;;;19.14;93.10;101362.44;5092872;28;20035;-49
2022/08/19 08:27:59;;;;;;;66.65;51.33;;;;;;;19.20;92.85;101370.31;5093372;28;20062;-50
2022/08/19 08:30:27;;;;;;;71.30;53.17;;;;;;;19.07;92.93;101377.25;5092318;28;20024;-48
2022/08/19 08:32:52;;;;;;;68.20;49.97;;;;;;;19.16;93.60;101377.25;5092990;28;20080;-48
2022/08/19 08:35:20;;;;;;;75.00;52.08;;;;;;;19.03;92.81;101381.59;5092220;28;20111;-49
2022/08/19 08:37:47;;;;;;;69.95;51.03;;;;;;;19.06;93.26;101385.94;5092330;28;20421;-46
2022/08/19 08:40:49;;;;;;;66.55;49.00;;;;;;;19.20;93.39;101393.81;5092902;28;20058;-49
2022/08/19 08:43:23;;;;;;;68.40;49.28;;;;;;;19.19;93.05;101389.47;5088748;28;20103;-50
2022/08/19 08:46:13;;;;;;;71.72;52.20;;;;;;;19.13;92.90;101397.28;5092663;28;20095;-50
2022/08/19 08:49:00;;;;;;;67.45;49.72;;;;;;;19.21;93.18;101406.00;5092617;28;20040;-47
2022/08/19 08:51:55;;;;;;;57.95;44.40;;;;;;;19.42;91.78;101399.97;5091947;28;20480;-48
2022/08/19 08:54:24;;;;;;;57.30;42.70;;;;;;;19.41;90.45;101401.69;5090086;28;20044;-50
2022/08/19 08:56:53;;;;;;;63.15;46.10;;;;;;;19.48;90.51;101397.34;5092038;28;20388;-50
2022/08/19 08:59:32;;;;;;;61.10;44.80;;;;;;;19.72;90.22;101388.66;5092480;28;20102;-48
2022/08/19 09:01:57;;;;;;;62.42;47.28;;;;;;;19.71;88.48;101386.91;5092747;28;20031;-50
2022/08/19 09:04:23;;;;;;;59.10;43.85;;;;;;;19.84;88.76;101389.56;5091988;28;20024;-51
2022/08/19 09:06:58;;;;;;;61.53;45.35;;;;;;;19.78;87.84;101386.91;5092423;28;20047;-49
2022/08/19 09:09:32;;;;;;;55.78;45.03;;;;;;;19.88;88.30;101383.44;5092647;28;20020;-50
2022/08/19 09:12:14;;;;;;;62.05;46.80;;;;;;;20.06;88.54;101386.06;5092170;28;20048;-50
2022/08/19 09:14:55;;;;;;;62.65;46.15;;;;;;;20.38;86.74;101385.13;5092291;28;20105;-50
2022/08/19 09:17:30;;;;;;;59.90;43.42;;;;;;;20.51;85.13;101382.47;5092638;28;20032;-49
2022/08/19 09:20:07;;;;;;;62.78;44.17;;;;;;;20.70;84.11;101385.94;5092299;28;20477;-51
2022/08/19 09:22:32;;;;;;;56.28;41.65;;;;;;;20.70;83.65;101384.19;5092459;28;20432;-49
2022/08/19 09:24:57;;;;;;;58.00;44.40;;;;;;;20.62;83.25;101393.78;5091835;28;20511;-47
2022/08/19 09:27:24;;;;;;;54.20;41.83;;;;;;;20.45;83.27;101390.34;5092347;28;20367;-48
2022/08/19 09:29:51;;;;;;;51.55;40.97;;;;;;;20.27;83.20;101397.38;5092381;28;20020;-50
2022/08/19 09:32:17;;;;;;;54.17;41.63;;;;;;;20.07;84.73;101395.63;5091927;28;20031;-49
2022/08/19 09:34:43;;;;;;;54.42;43.35;;;;;;;19.95;85.73;101403.50;5092007;28;20020;-50
2022/08/19 09:37:10;;;;;;;59.60;43.60;;;;;;;19.93;86.16;101405.25;5092563;28;20027;-48
2022/08/19 09:39:35;;;;;;;57.65;42.20;;;;;;;19.97;86.38;101403.50;5095391;28;20066;-50
2022/08/19 09:42:00;;;;;;;61.15;45.33;;;;;;;20.00;85.87;101407.00;5095948;28;20099;-45
2022/08/19 09:44:25;;;;;;;62.78;44.20;;;;;;;20.07;85.50;101400.88;5096258;28;20436;-50
2022/08/19 09:46:51;;;;;;;60.85;44.22;;;;;;;20.07;84.93;101400.88;5095562;28;20028;-50
2022/08/19 09:49:19;;;;;;;59.67;44.25;;;;;;;20.31;84.21;101399.09;5095514;28;20040;-48
2022/08/19 09:51:48;;;;;;;59.25;43.85;;;;;;;20.33;83.92;101399.09;5095819;28;20039;-50
2022/08/19 09:54:14;;;;;;;60.28;43.75;;;;;;;20.53;83.23;101405.16;5094866;28;20036;-50
2022/08/19 09:56:39;;;;;;;57.63;44.88;;;;;;;20.50;82.87;101404.28;5095776;28;20066;-51
2022/08/19 09:59:04;;;;;;;59.55;45.58;;;;;;;20.46;83.46;101402.56;5095815;28;20402;-45
2022/08/19 10:01:31;;;;;;;60.03;47.45;;;;;;;20.49;83.31;101413.91;5094805;28;20032;-48
2022/08/19 10:03:59;;;;;;;60.35;46.13;;;;;;;20.69;83.22;101415.59;5095737;28;20050;-48
2022/08/19 10:06:31;;;;;;;58.63;44.42;;;;;;;20.78;82.21;101417.34;5095608;28;20099;-48
2022/08/19 10:08:56;;;;;;;61.15;45.10;;;;;;;20.76;82.11;101417.34;5094712;28;20032;-47
2022/08/19 10:11:21;;;;;;;57.72;44.28;;;;;;;20.79;81.90;101419.94;5095664;28;20089;-50
2022/08/19 10:13:49;;;;;;;59.35;46.17;;;;;;;20.58;83.21;101412.13;5094857;28;20119;-47
2022/08/19 10:16:18;;;;;;;62.53;46.58;;;;;;;20.64;82.23;101410.34;5095073;28;20406;-51
2022/08/19 10:18:44;;;;;;;65.20;47.30;;;;;;;21.24;80.00;101401.41;5095243;28;20021;-47
2022/08/19 10:21:13;;;;;;;56.72;45.28;;;;;;;21.81;77.75;101405.41;5094683;28;20024;-50
2022/08/19 10:23:44;;;;;;;58.63;45.22;;;;;;;21.99;76.08;101410.47;5095080;28;20024;-49
2022/08/19 10:26:10;;;;;;;63.28;42.08;;;;;;;21.99;75.84;101405.22;5095261;28;20070;-50
2022/08/19 10:28:39;;;;;;;53.75;40.00;;;;;;;21.90;75.09;101407.06;5094421;28;20463;-50
2022/08/19 10:31:14;;;;;;;54.70;40.65;;;;;;;21.77;75.68;101408.91;5094835;28;20051;-48
2022/08/19 10:33:39;;;;;;;51.67;39.67;;;;;;;21.63;76.45;101406.41;5094916;28;20483;-49
2022/08/19 10:36:09;;;;;;;54.92;42.00;;;;;;;21.43;77.07;101414.38;5094413;28;20035;-49
2022/08/19 10:38:35;;;;;;;50.67;40.28;;;;;;;21.26;77.70;101407.47;5094851;28;20028;-50
2022/08/19 10:41:15;;;;;;;52.88;41.05;;;;;;;21.13;78.36;101409.31;5094968;28;20039;-48
2022/08/19 10:43:42;;;;;;;54.38;40.75;;;;;;;20.99;78.41;101408.50;5093816;28;20065;-49
2022/08/19 10:46:09;;;;;;;55.30;41.28;;;;;;;21.08;78.66;101412.84;5094732;28;20051;-48
2022/08/19 10:48:34;;;;;;;51.90;38.60;;;;;;;21.16;79.86;101406.69;5093624;28;20377;-49
2022/08/19 10:53:44;;;;;;;47.25;38.08;;;;;;;21.76;75.96;101402.81;5094729;28;20064;-50
2022/08/19 10:58:54;;;;;;;45.58;35.53;;;;;;;22.22;74.87;101396.28;5094693;28;20119;-49
2022/08/19 11:01:20;;;;;;;50.10;37.72;;;;;;;22.22;72.73;101396.28;5094562;28;20110;-50
2022/08/19 11:03:45;;;;;;;50.45;37.90;;;;;;;22.42;73.06;101389.97;5093694;28;20410;-49
2022/08/19 11:06:10;;;;;;;48.25;38.00;;;;;;;22.38;71.33;101396.16;5094188;28;20034;-49
2022/08/19 11:08:41;;;;;;;59.35;38.40;;;;;;;22.28;72.36;101401.44;5094282;28;20031;-50
2022/08/19 11:11:08;;;;;;;45.35;35.53;;;;;;;22.41;72.51;101399.59;5093812;28;20031;-50
2022/08/19 11:13:37;;;;;;;47.47;34.97;;;;;;;22.28;72.88;101401.44;5093742;28;20051;-47
2022/08/19 11:16:24;;;;;;;45.25;36.67;;;;;;;22.56;72.36;101392.44;5094329;28;20032;-49
2022/08/19 11:18:53;;;;;;;49.33;36.80;;;;;;;22.61;71.88;101391.50;5093437;28;20024;-47
2022/08/19 11:21:22;;;;;;;46.00;34.38;;;;;;;22.89;70.24;101382.38;5094059;28;20035;-50
2022/08/19 11:23:50;;;;;;;45.95;35.60;;;;;;;22.85;69.48;101386.81;5093902;28;20489;-49
2022/08/19 11:26:15;;;;;;;44.15;34.38;;;;;;;22.78;68.88;101393.06;5093374;28;20027;-50
2022/08/19 11:28:41;;;;;;;44.88;35.47;;;;;;;22.89;69.23;101399.00;5093712;28;20035;-50